sensor_id;sensor_type;location;lat;lon;timestamp;P1;durP1;ratioP1;P2;durP2;ratioP2
9372;SDS011;10838;52.350;9.790;2023-06-22T00:01:45;12.50;;;11.30;;
9372;SDS011;10838;52.350;9.790;2023-06-22T00:04:12;12.60;;;11.43;;
9372;SDS011;10838;52.350;9.790;2023-06-22T00:06:38;12.70;;;11.53;;
9372;SDS011;10838;52.350;9.790;2023-06-22T00:09:05;13.43;;;12.13;;
9372;SDS011;10838;52.350;9.790;2023-06-22T00:11:32;13.93;;;12.50;;
9372;SDS011;10838;52.350;9.790;2023-06-22T00:14:00;12.80;;;11.67;;
9372;SDS011;10838;52.350;9.790;2023-06-22T00:16:26;13.53;;;12.10;;
9372;SDS011;10838;52.350;9.790;2023-06-22T00:18:53;12.87;;;11.67;;
9372;SDS011;10838;52.350;9.790;2023-06-22T00:21:19;13.10;;;11.87;;
9372;SDS011;10838;52.350;9.790;2023-06-22T00:23:46;13.80;;;12.40;;
9372;SDS011;10838;52.350;9.790;2023-06-22T00:26:12;15.40;;;13.80;;
9372;SDS011;10838;52.350;9.790;2023-06-22T00:28:39;14.47;;;13.17;;
9372;SDS011;10838;52.350;9.790;2023-06-22T00:31:07;14.20;;;12.70;;
9372;SDS011;10838;52.350;9.790;2023-06-22T00:33:34;12.93;;;11.63;;
9372;SDS011;10838;52.350;9.790;2023-06-22T00:36:00;14.90;;;12.23;;
9372;SDS011;10838;52.350;9.790;2023-06-22T00:38:28;14.53;;;12.00;;
9372;SDS011;10838;52.350;9.790;2023-06-22T00:40:54;12.80;;;11.60;;
9372;SDS011;10838;52.350;9.790;2023-06-22T00:43:21;14.40;;;12.23;;
9372;SDS011;10838;52.350;9.790;2023-06-22T00:45:47;15.37;;;13.87;;
9372;SDS011;10838;52.350;9.790;2023-06-22T00:48:15;15.40;;;13.83;;
9372;SDS011;10838;52.350;9.790;2023-06-22T00:50:42;13.40;;;12.20;;
9372;SDS011;10838;52.350;9.790;2023-06-22T00:53:09;14.40;;;13.10;;
9372;SDS011;10838;52.350;9.790;2023-06-22T00:55:36;15.00;;;13.53;;
9372;SDS011;10838;52.350;9.790;2023-06-22T00:58:04;14.43;;;13.03;;
9372;SDS011;10838;52.350;9.790;2023-06-22T01:00:35;14.13;;;12.57;;
9372;SDS011;10838;52.350;9.790;2023-06-22T01:03:02;14.77;;;13.40;;
9372;SDS011;10838;52.350;9.790;2023-06-22T01:05:30;14.57;;;13.00;;
9372;SDS011;10838;52.350;9.790;2023-06-22T01:08:00;13.97;;;12.67;;
9372;SDS011;10838;52.350;9.790;2023-06-22T01:10:36;15.53;;;12.50;;
9372;SDS011;10838;52.350;9.790;2023-06-22T01:13:12;14.27;;;12.87;;
9372;SDS011;10838;52.350;9.790;2023-06-22T01:15:49;14.93;;;13.47;;
9372;SDS011;10838;52.350;9.790;2023-06-22T01:18:21;16.57;;;12.73;;
9372;SDS011;10838;52.350;9.790;2023-06-22T01:20:52;12.40;;;11.33;;
9372;SDS011;10838;52.350;9.790;2023-06-22T01:23:21;13.90;;;12.60;;
9372;SDS011;10838;52.350;9.790;2023-06-22T01:25:57;13.30;;;12.00;;
9372;SDS011;10838;52.350;9.790;2023-06-22T01:28:37;13.33;;;12.20;;
9372;SDS011;10838;52.350;9.790;2023-06-22T01:31:09;14.07;;;12.70;;
9372;SDS011;10838;52.350;9.790;2023-06-22T01:33:39;16.20;;;13.27;;
9372;SDS011;10838;52.350;9.790;2023-06-22T01:36:08;14.07;;;12.80;;
9372;SDS011;10838;52.350;9.790;2023-06-22T01:38:36;13.97;;;12.57;;
9372;SDS011;10838;52.350;9.790;2023-06-22T01:41:04;18.13;;;12.47;;
9372;SDS011;10838;52.350;9.790;2023-06-22T01:43:31;13.57;;;12.37;;
9372;SDS011;10838;52.350;9.790;2023-06-22T01:46:00;13.07;;;11.93;;
9372;SDS011;10838;52.350;9.790;2023-06-22T01:48:28;15.17;;;12.50;;
9372;SDS011;10838;52.350;9.790;2023-06-22T01:50:55;14.17;;;12.97;;
9372;SDS011;10838;52.350;9.790;2023-06-22T01:53:22;12.87;;;11.80;;
9372;SDS011;10838;52.350;9.790;2023-06-22T01:55:48;14.43;;;13.03;;
9372;SDS011;10838;52.350;9.790;2023-06-22T01:58:15;14.33;;;12.87;;
9372;SDS011;10838;52.350;9.790;2023-06-22T02:00:44;16.47;;;12.73;;
9372;SDS011;10838;52.350;9.790;2023-06-22T02:03:21;13.80;;;12.53;;
9372;SDS011;10838;52.350;9.790;2023-06-22T02:05:52;12.07;;;11.07;;
9372;SDS011;10838;52.350;9.790;2023-06-22T02:08:25;13.30;;;12.07;;
9372;SDS011;10838;52.350;9.790;2023-06-22T02:10:56;13.67;;;12.37;;
9372;SDS011;10838;52.350;9.790;2023-06-22T02:13:25;13.43;;;12.13;;
9372;SDS011;10838;52.350;9.790;2023-06-22T02:15:53;13.87;;;12.57;;
9372;SDS011;10838;52.350;9.790;2023-06-22T02:18:22;13.83;;;12.67;;
9372;SDS011;10838;52.350;9.790;2023-06-22T02:20:48;13.90;;;12.70;;
9372;SDS011;10838;52.350;9.790;2023-06-22T02:23:15;13.43;;;12.13;;
9372;SDS011;10838;52.350;9.790;2023-06-22T02:25:41;12.80;;;11.73;;
9372;SDS011;10838;52.350;9.790;2023-06-22T02:28:09;13.97;;;12.77;;
9372;SDS011;10838;52.350;9.790;2023-06-22T02:30:36;13.20;;;12.10;;
9372;SDS011;10838;52.350;9.790;2023-06-22T02:33:02;14.13;;;12.83;;
9372;SDS011;10838;52.350;9.790;2023-06-22T02:35:30;13.57;;;12.27;;
9372;SDS011;10838;52.350;9.790;2023-06-22T02:37:57;13.03;;;11.97;;
9372;SDS011;10838;52.350;9.790;2023-06-22T02:40:24;13.67;;;12.33;;
9372;SDS011;10838;52.350;9.790;2023-06-22T02:42:51;12.77;;;11.50;;
9372;SDS011;10838;52.350;9.790;2023-06-22T02:45:18;14.03;;;12.63;;
9372;SDS011;10838;52.350;9.790;2023-06-22T02:47:44;13.90;;;12.53;;
9372;SDS011;10838;52.350;9.790;2023-06-22T02:50:12;13.80;;;12.60;;
9372;SDS011;10838;52.350;9.790;2023-06-22T02:52:40;13.67;;;12.47;;
9372;SDS011;10838;52.350;9.790;2023-06-22T02:55:07;13.70;;;12.60;;
9372;SDS011;10838;52.350;9.790;2023-06-22T02:57:34;14.53;;;12.50;;
9372;SDS011;10838;52.350;9.790;2023-06-22T03:00:02;13.27;;;12.17;;
9372;SDS011;10838;52.350;9.790;2023-06-22T03:02:41;13.90;;;12.60;;
9372;SDS011;10838;52.350;9.790;2023-06-22T03:05:08;13.77;;;12.37;;
9372;SDS011;10838;52.350;9.790;2023-06-22T03:07:40;14.57;;;12.70;;
9372;SDS011;10838;52.350;9.790;2023-06-22T03:10:07;13.57;;;12.30;;
9372;SDS011;10838;52.350;9.790;2023-06-22T03:12:35;13.03;;;11.83;;
9372;SDS011;10838;52.350;9.790;2023-06-22T03:15:02;12.93;;;11.83;;
9372;SDS011;10838;52.350;9.790;2023-06-22T03:17:29;12.43;;;11.43;;
9372;SDS011;10838;52.350;9.790;2023-06-22T03:19:55;13.20;;;12.10;;
9372;SDS011;10838;52.350;9.790;2023-06-22T03:22:22;13.13;;;11.97;;
9372;SDS011;10838;52.350;9.790;2023-06-22T03:24:50;12.80;;;11.63;;
9372;SDS011;10838;52.350;9.790;2023-06-22T03:27:17;12.77;;;11.67;;
9372;SDS011;10838;52.350;9.790;2023-06-22T03:29:43;12.93;;;11.63;;
9372;SDS011;10838;52.350;9.790;2023-06-22T03:32:10;13.30;;;12.10;;
9372;SDS011;10838;52.350;9.790;2023-06-22T03:34:37;13.17;;;12.03;;
9372;SDS011;10838;52.350;9.790;2023-06-22T03:37:03;16.50;;;12.10;;
9372;SDS011;10838;52.350;9.790;2023-06-22T03:39:31;13.73;;;12.37;;
9372;SDS011;10838;52.350;9.790;2023-06-22T03:41:59;13.47;;;12.27;;
9372;SDS011;10838;52.350;9.790;2023-06-22T03:44:25;12.33;;;11.23;;
9372;SDS011;10838;52.350;9.790;2023-06-22T03:46:52;13.47;;;12.27;;
9372;SDS011;10838;52.350;9.790;2023-06-22T03:49:19;14.00;;;12.50;;
9372;SDS011;10838;52.350;9.790;2023-06-22T03:51:45;13.00;;;11.87;;
9372;SDS011;10838;52.350;9.790;2023-06-22T03:54:12;13.83;;;12.63;;
9372;SDS011;10838;52.350;9.790;2023-06-22T03:56:38;13.30;;;12.20;;
9372;SDS011;10838;52.350;9.790;2023-06-22T03:59:06;14.33;;;11.77;;
9372;SDS011;10838;52.350;9.790;2023-06-22T04:01:33;13.70;;;12.43;;
9372;SDS011;10838;52.350;9.790;2023-06-22T04:03:59;13.33;;;12.07;;
9372;SDS011;10838;52.350;9.790;2023-06-22T04:06:26;13.20;;;12.03;;
9372;SDS011;10838;52.350;9.790;2023-06-22T04:08:52;14.33;;;12.93;;
9372;SDS011;10838;52.350;9.790;2023-06-22T04:11:19;13.37;;;12.13;;
9372;SDS011;10838;52.350;9.790;2023-06-22T04:13:46;13.37;;;12.17;;
9372;SDS011;10838;52.350;9.790;2023-06-22T04:16:15;13.17;;;12.07;;
9372;SDS011;10838;52.350;9.790;2023-06-22T04:18:41;12.97;;;11.63;;
9372;SDS011;10838;52.350;9.790;2023-06-22T04:21:09;13.17;;;12.07;;
9372;SDS011;10838;52.350;9.790;2023-06-22T04:23:36;14.00;;;12.57;;
9372;SDS011;10838;52.350;9.790;2023-06-22T04:26:03;14.90;;;13.40;;
9372;SDS011;10838;52.350;9.790;2023-06-22T04:28:29;14.07;;;12.90;;
9372;SDS011;10838;52.350;9.790;2023-06-22T04:30:59;13.43;;;12.20;;
9372;SDS011;10838;52.350;9.790;2023-06-22T04:33:28;14.33;;;13.13;;
9372;SDS011;10838;52.350;9.790;2023-06-22T04:35:55;13.80;;;12.47;;
9372;SDS011;10838;52.350;9.790;2023-06-22T04:38:22;13.23;;;11.93;;
9372;SDS011;10838;52.350;9.790;2023-06-22T04:40:49;13.40;;;12.17;;
9372;SDS011;10838;52.350;9.790;2023-06-22T04:43:16;13.33;;;12.23;;
9372;SDS011;10838;52.350;9.790;2023-06-22T04:45:42;13.13;;;12.00;;
9372;SDS011;10838;52.350;9.790;2023-06-22T04:48:09;14.87;;;13.47;;
9372;SDS011;10838;52.350;9.790;2023-06-22T04:50:42;14.13;;;12.63;;
9372;SDS011;10838;52.350;9.790;2023-06-22T04:53:09;14.23;;;12.93;;
9372;SDS011;10838;52.350;9.790;2023-06-22T04:55:37;15.20;;;13.80;;
9372;SDS011;10838;52.350;9.790;2023-06-22T04:58:06;13.87;;;12.33;;
9372;SDS011;10838;52.350;9.790;2023-06-22T05:00:33;14.00;;;12.37;;
9372;SDS011;10838;52.350;9.790;2023-06-22T05:03:01;13.67;;;12.33;;
9372;SDS011;10838;52.350;9.790;2023-06-22T05:05:28;16.93;;;13.37;;
9372;SDS011;10838;52.350;9.790;2023-06-22T05:07:56;17.67;;;13.57;;
9372;SDS011;10838;52.350;9.790;2023-06-22T05:10:25;13.23;;;11.67;;
9372;SDS011;10838;52.350;9.790;2023-06-22T05:12:52;13.70;;;12.23;;
9372;SDS011;10838;52.350;9.790;2023-06-22T05:15:18;13.60;;;12.23;;
9372;SDS011;10838;52.350;9.790;2023-06-22T05:17:45;19.03;;;12.27;;
9372;SDS011;10838;52.350;9.790;2023-06-22T05:20:12;13.87;;;12.47;;
9372;SDS011;10838;52.350;9.790;2023-06-22T05:22:42;13.53;;;12.20;;
9372;SDS011;10838;52.350;9.790;2023-06-22T05:25:11;13.00;;;10.73;;
9372;SDS011;10838;52.350;9.790;2023-06-22T05:27:39;13.50;;;11.50;;
9372;SDS011;10838;52.350;9.790;2023-06-22T05:30:06;12.20;;;11.20;;
9372;SDS011;10838;52.350;9.790;2023-06-22T05:32:34;14.63;;;12.40;;
9372;SDS011;10838;52.350;9.790;2023-06-22T05:35:01;14.10;;;11.10;;
9372;SDS011;10838;52.350;9.790;2023-06-22T05:37:28;12.37;;;11.17;;
9372;SDS011;10838;52.350;9.790;2023-06-22T05:39:55;13.63;;;10.37;;
9372;SDS011;10838;52.350;9.790;2023-06-22T05:42:23;21.33;;;10.27;;
9372;SDS011;10838;52.350;9.790;2023-06-22T05:44:50;13.00;;;9.90;;
9372;SDS011;10838;52.350;9.790;2023-06-22T05:47:18;11.13;;;10.07;;
9372;SDS011;10838;52.350;9.790;2023-06-22T05:49:44;17.40;;;10.20;;
9372;SDS011;10838;52.350;9.790;2023-06-22T05:52:11;12.57;;;9.97;;
9372;SDS011;10838;52.350;9.790;2023-06-22T05:54:37;10.60;;;9.17;;
9372;SDS011;10838;52.350;9.790;2023-06-22T05:57:06;11.37;;;9.73;;
9372;SDS011;10838;52.350;9.790;2023-06-22T05:59:34;11.17;;;8.70;;
9372;SDS011;10838;52.350;9.790;2023-06-22T06:02:01;12.17;;;9.10;;
9372;SDS011;10838;52.350;9.790;2023-06-22T06:04:27;13.23;;;9.40;;
9372;SDS011;10838;52.350;9.790;2023-06-22T06:06:54;16.60;;;9.30;;
9372;SDS011;10838;52.350;9.790;2023-06-22T06:09:20;14.17;;;9.17;;
9372;SDS011;10838;52.350;9.790;2023-06-22T06:11:47;11.03;;;8.83;;
9372;SDS011;10838;52.350;9.790;2023-06-22T06:14:14;11.37;;;8.83;;
9372;SDS011;10838;52.350;9.790;2023-06-22T06:16:43;11.20;;;8.97;;
9372;SDS011;10838;52.350;9.790;2023-06-22T06:19:10;12.97;;;8.27;;
9372;SDS011;10838;52.350;9.790;2023-06-22T06:21:36;9.67;;;8.70;;
9372;SDS011;10838;52.350;9.790;2023-06-22T06:24:03;9.73;;;8.67;;
9372;SDS011;10838;52.350;9.790;2023-06-22T06:26:30;15.07;;;8.33;;
9372;SDS011;10838;52.350;9.790;2023-06-22T06:29:00;14.17;;;8.77;;
9372;SDS011;10838;52.350;9.790;2023-06-22T06:31:28;11.97;;;7.73;;
9372;SDS011;10838;52.350;9.790;2023-06-22T06:33:56;9.30;;;8.37;;
9372;SDS011;10838;52.350;9.790;2023-06-22T06:36:23;14.13;;;8.60;;
9372;SDS011;10838;52.350;9.790;2023-06-22T06:38:49;9.23;;;7.80;;
9372;SDS011;10838;52.350;9.790;2023-06-22T06:41:16;10.07;;;7.77;;
9372;SDS011;10838;52.350;9.790;2023-06-22T06:43:42;8.27;;;7.43;;
9372;SDS011;10838;52.350;9.790;2023-06-22T06:46:09;7.50;;;6.90;;
9372;SDS011;10838;52.350;9.790;2023-06-22T06:48:36;18.00;;;7.10;;
9372;SDS011;10838;52.350;9.790;2023-06-22T06:51:04;14.87;;;6.53;;
9372;SDS011;10838;52.350;9.790;2023-06-22T06:53:34;13.20;;;6.93;;
9372;SDS011;10838;52.350;9.790;2023-06-22T06:56:01;6.70;;;6.00;;
9372;SDS011;10838;52.350;9.790;2023-06-22T06:58:28;12.47;;;6.40;;
9372;SDS011;10838;52.350;9.790;2023-06-22T07:00:55;13.73;;;6.27;;
9372;SDS011;10838;52.350;9.790;2023-06-22T07:03:21;7.87;;;5.87;;
9372;SDS011;10838;52.350;9.790;2023-06-22T07:05:48;6.93;;;6.20;;
9372;SDS011;10838;52.350;9.790;2023-06-22T07:08:16;6.43;;;5.80;;
9372;SDS011;10838;52.350;9.790;2023-06-22T07:10:42;7.20;;;6.50;;
9372;SDS011;10838;52.350;9.790;2023-06-22T07:13:09;13.00;;;6.07;;
9372;SDS011;10838;52.350;9.790;2023-06-22T07:15:36;6.00;;;5.50;;
9372;SDS011;10838;52.350;9.790;2023-06-22T07:18:02;7.45;;;5.95;;
9372;SDS011;10838;52.350;9.790;2023-06-22T07:20:29;8.10;;;6.20;;
9372;SDS011;10838;52.350;9.790;2023-06-22T07:22:55;8.98;;;6.22;;
9372;SDS011;10838;52.350;9.790;2023-06-22T07:25:24;6.93;;;6.22;;
9372;SDS011;10838;52.350;9.790;2023-06-22T07:27:57;7.32;;;6.63;;
9372;SDS011;10838;52.350;9.790;2023-06-22T07:30:24;6.80;;;6.10;;
9372;SDS011;10838;52.350;9.790;2023-06-22T07:32:51;9.73;;;6.95;;
9372;SDS011;10838;52.350;9.790;2023-06-22T07:35:18;7.20;;;6.43;;
9372;SDS011;10838;52.350;9.790;2023-06-22T07:37:45;7.25;;;5.97;;
9372;SDS011;10838;52.350;9.790;2023-06-22T07:40:11;7.82;;;6.35;;
9372;SDS011;10838;52.350;9.790;2023-06-22T07:42:40;10.80;;;6.38;;
9372;SDS011;10838;52.350;9.790;2023-06-22T07:45:07;9.13;;;6.50;;
9372;SDS011;10838;52.350;9.790;2023-06-22T07:47:34;8.15;;;5.93;;
9372;SDS011;10838;52.350;9.790;2023-06-22T07:50:01;8.93;;;6.25;;
9372;SDS011;10838;52.350;9.790;2023-06-22T07:52:29;10.13;;;6.40;;
9372;SDS011;10838;52.350;9.790;2023-06-22T07:54:56;7.03;;;6.43;;
9372;SDS011;10838;52.350;9.790;2023-06-22T07:57:22;7.70;;;6.95;;
9372;SDS011;10838;52.350;9.790;2023-06-22T07:59:58;7.13;;;6.40;;
9372;SDS011;10838;52.350;9.790;2023-06-22T08:02:25;8.05;;;6.82;;
9372;SDS011;10838;52.350;9.790;2023-06-22T08:04:52;7.38;;;6.68;;
9372;SDS011;10838;52.350;9.790;2023-06-22T08:07:18;7.72;;;7.13;;
9372;SDS011;10838;52.350;9.790;2023-06-22T08:09:46;7.55;;;6.78;;
9372;SDS011;10838;52.350;9.790;2023-06-22T08:12:13;9.05;;;7.30;;
9372;SDS011;10838;52.350;9.790;2023-06-22T08:14:41;9.98;;;7.03;;
9372;SDS011;10838;52.350;9.790;2023-06-22T08:17:09;9.57;;;7.22;;
9372;SDS011;10838;52.350;9.790;2023-06-22T08:19:36;11.25;;;7.10;;
9372;SDS011;10838;52.350;9.790;2023-06-22T08:22:03;7.97;;;7.15;;
9372;SDS011;10838;52.350;9.790;2023-06-22T08:24:30;8.10;;;7.30;;
9372;SDS011;10838;52.350;9.790;2023-06-22T08:26:57;7.82;;;7.13;;
9372;SDS011;10838;52.350;9.790;2023-06-22T08:29:23;8.57;;;7.70;;
9372;SDS011;10838;52.350;9.790;2023-06-22T08:31:50;8.45;;;7.55;;
9372;SDS011;10838;52.350;9.790;2023-06-22T08:34:18;7.75;;;7.05;;
9372;SDS011;10838;52.350;9.790;2023-06-22T08:36:46;8.73;;;7.90;;
9372;SDS011;10838;52.350;9.790;2023-06-22T08:39:16;9.35;;;7.40;;
9372;SDS011;10838;52.350;9.790;2023-06-22T08:41:43;8.27;;;7.30;;
9372;SDS011;10838;52.350;9.790;2023-06-22T08:44:09;10.65;;;7.25;;
9372;SDS011;10838;52.350;9.790;2023-06-22T08:46:36;8.82;;;7.43;;
9372;SDS011;10838;52.350;9.790;2023-06-22T08:49:03;10.57;;;7.35;;
9372;SDS011;10838;52.350;9.790;2023-06-22T08:51:32;9.35;;;8.38;;
9372;SDS011;10838;52.350;9.790;2023-06-22T08:53:59;8.88;;;8.18;;
9372;SDS011;10838;52.350;9.790;2023-06-22T08:56:25;9.70;;;7.97;;
9372;SDS011;10838;52.350;9.790;2023-06-22T08:58:52;8.20;;;7.50;;
9372;SDS011;10838;52.350;9.790;2023-06-22T09:01:18;8.43;;;7.40;;
9372;SDS011;10838;52.350;9.790;2023-06-22T09:03:45;8.13;;;7.30;;
9372;SDS011;10838;52.350;9.790;2023-06-22T09:06:19;8.65;;;7.40;;
9372;SDS011;10838;52.350;9.790;2023-06-22T09:08:47;9.55;;;7.55;;
9372;SDS011;10838;52.350;9.790;2023-06-22T09:11:14;8.70;;;7.90;;
9372;SDS011;10838;52.350;9.790;2023-06-22T09:13:40;9.93;;;7.88;;
9372;SDS011;10838;52.350;9.790;2023-06-22T09:16:07;8.85;;;7.68;;
9372;SDS011;10838;52.350;9.790;2023-06-22T09:18:33;8.52;;;7.82;;
9372;SDS011;10838;52.350;9.790;2023-06-22T09:21:01;9.10;;;8.30;;
9372;SDS011;10838;52.350;9.790;2023-06-22T09:23:27;9.68;;;8.68;;
9372;SDS011;10838;52.350;9.790;2023-06-22T09:25:55;12.00;;;9.32;;
9372;SDS011;10838;52.350;9.790;2023-06-22T09:28:22;9.98;;;9.07;;
9372;SDS011;10838;52.350;9.790;2023-06-22T09:30:48;10.80;;;9.70;;
9372;SDS011;10838;52.350;9.790;2023-06-22T09:33:15;10.77;;;9.68;;
9372;SDS011;10838;52.350;9.790;2023-06-22T09:35:44;11.10;;;10.10;;
9372;SDS011;10838;52.350;9.790;2023-06-22T09:38:11;11.20;;;9.77;;
9372;SDS011;10838;52.350;9.790;2023-06-22T09:40:37;11.38;;;10.30;;
9372;SDS011;10838;52.350;9.790;2023-06-22T09:43:06;14.50;;;10.25;;
9372;SDS011;10838;52.350;9.790;2023-06-22T09:45:32;19.08;;;10.15;;
9372;SDS011;10838;52.350;9.790;2023-06-22T09:47:59;13.77;;;12.35;;
9372;SDS011;10838;52.350;9.790;2023-06-22T09:50:26;12.57;;;11.38;;
9372;SDS011;10838;52.350;9.790;2023-06-22T09:52:52;12.38;;;10.57;;
9372;SDS011;10838;52.350;9.790;2023-06-22T09:55:19;13.18;;;10.48;;
9372;SDS011;10838;52.350;9.790;2023-06-22T09:57:46;11.93;;;10.77;;
9372;SDS011;10838;52.350;9.790;2023-06-22T10:00:16;13.60;;;12.23;;
9372;SDS011;10838;52.350;9.790;2023-06-22T10:02:44;12.65;;;11.50;;
9372;SDS011;10838;52.350;9.790;2023-06-22T10:05:11;12.88;;;11.13;;
9372;SDS011;10838;52.350;9.790;2023-06-22T10:07:37;13.40;;;12.30;;
9372;SDS011;10838;52.350;9.790;2023-06-22T10:10:07;13.85;;;12.30;;
9372;SDS011;10838;52.350;9.790;2023-06-22T10:12:34;13.52;;;12.15;;
9372;SDS011;10838;52.350;9.790;2023-06-22T10:15:01;14.40;;;12.20;;
9372;SDS011;10838;52.350;9.790;2023-06-22T10:17:30;12.68;;;11.48;;
9372;SDS011;10838;52.350;9.790;2023-06-22T10:19:56;12.90;;;11.40;;
9372;SDS011;10838;52.350;9.790;2023-06-22T10:22:23;14.02;;;10.95;;
9372;SDS011;10838;52.350;9.790;2023-06-22T10:24:49;13.37;;;12.20;;
9372;SDS011;10838;52.350;9.790;2023-06-22T10:27:16;13.52;;;12.15;;
9372;SDS011;10838;52.350;9.790;2023-06-22T10:29:43;13.25;;;12.10;;
9372;SDS011;10838;52.350;9.790;2023-06-22T10:32:10;28.38;;;11.90;;
9372;SDS011;10838;52.350;9.790;2023-06-22T10:34:38;15.52;;;11.18;;
9372;SDS011;10838;52.350;9.790;2023-06-22T10:37:05;13.15;;;12.00;;
9372;SDS011;10838;52.350;9.790;2023-06-22T10:39:32;13.15;;;12.02;;
9372;SDS011;10838;52.350;9.790;2023-06-22T10:41:58;13.95;;;12.68;;
9372;SDS011;10838;52.350;9.790;2023-06-22T10:44:25;13.88;;;12.60;;
9372;SDS011;10838;52.350;9.790;2023-06-22T10:46:51;13.68;;;12.15;;
9372;SDS011;10838;52.350;9.790;2023-06-22T10:49:18;13.52;;;12.38;;
9372;SDS011;10838;52.350;9.790;2023-06-22T10:51:46;13.55;;;12.35;;
9372;SDS011;10838;52.350;9.790;2023-06-22T10:54:12;18.52;;;12.07;;
9372;SDS011;10838;52.350;9.790;2023-06-22T10:56:42;13.05;;;11.70;;
9372;SDS011;10838;52.350;9.790;2023-06-22T10:59:08;13.90;;;10.98;;
9372;SDS011;10838;52.350;9.790;2023-06-22T11:01:35;13.63;;;12.23;;
9372;SDS011;10838;52.350;9.790;2023-06-22T11:04:02;19.10;;;12.15;;
9372;SDS011;10838;52.350;9.790;2023-06-22T11:06:28;13.15;;;11.95;;
9372;SDS011;10838;52.350;9.790;2023-06-22T11:08:56;12.18;;;11.07;;
9372;SDS011;10838;52.350;9.790;2023-06-22T11:11:25;13.52;;;12.32;;
9372;SDS011;10838;52.350;9.790;2023-06-22T11:13:52;14.15;;;13.05;;
9372;SDS011;10838;52.350;9.790;2023-06-22T11:16:18;14.88;;;13.40;;
9372;SDS011;10838;52.350;9.790;2023-06-22T11:18:45;13.43;;;12.15;;
9372;SDS011;10838;52.350;9.790;2023-06-22T11:21:11;12.80;;;11.57;;
9372;SDS011;10838;52.350;9.790;2023-06-22T11:23:38;14.25;;;12.98;;
9372;SDS011;10838;52.350;9.790;2023-06-22T11:26:06;14.43;;;13.02;;
9372;SDS011;10838;52.350;9.790;2023-06-22T11:28:32;12.55;;;11.50;;
9372;SDS011;10838;52.350;9.790;2023-06-22T11:30:59;13.48;;;12.18;;
9372;SDS011;10838;52.350;9.790;2023-06-22T11:33:26;13.55;;;12.30;;
9372;SDS011;10838;52.350;9.790;2023-06-22T11:35:53;13.32;;;12.13;;
9372;SDS011;10838;52.350;9.790;2023-06-22T11:38:21;13.55;;;11.70;;
9372;SDS011;10838;52.350;9.790;2023-06-22T11:40:47;16.33;;;12.95;;
9372;SDS011;10838;52.350;9.790;2023-06-22T11:43:15;13.68;;;12.40;;
9372;SDS011;10838;52.350;9.790;2023-06-22T11:45:42;12.80;;;11.70;;
9372;SDS011;10838;52.350;9.790;2023-06-22T11:48:08;12.88;;;11.77;;
9372;SDS011;10838;52.350;9.790;2023-06-22T11:50:35;13.63;;;12.23;;
9372;SDS011;10838;52.350;9.790;2023-06-22T11:53:02;11.85;;;10.70;;
9372;SDS011;10838;52.350;9.790;2023-06-22T11:55:29;12.57;;;11.27;;
9372;SDS011;10838;52.350;9.790;2023-06-22T11:57:56;13.57;;;11.15;;
9372;SDS011;10838;52.350;9.790;2023-06-22T12:00:29;12.63;;;11.48;;
9372;SDS011;10838;52.350;9.790;2023-06-22T12:02:56;13.68;;;11.77;;
9372;SDS011;10838;52.350;9.790;2023-06-22T12:05:22;14.00;;;12.68;;
9372;SDS011;10838;52.350;9.790;2023-06-22T12:07:49;12.15;;;11.25;;
9372;SDS011;10838;52.350;9.790;2023-06-22T12:10:18;14.40;;;11.80;;
9372;SDS011;10838;52.350;9.790;2023-06-22T12:12:45;13.25;;;12.15;;
9372;SDS011;10838;52.350;9.790;2023-06-22T12:15:12;14.38;;;13.07;;
9372;SDS011;10838;52.350;9.790;2023-06-22T12:17:40;14.32;;;11.27;;
9372;SDS011;10838;52.350;9.790;2023-06-22T12:20:07;13.90;;;11.75;;
9372;SDS011;10838;52.350;9.790;2023-06-22T12:22:34;12.93;;;11.30;;
9372;SDS011;10838;52.350;9.790;2023-06-22T12:25:02;12.52;;;10.60;;
9372;SDS011;10838;52.350;9.790;2023-06-22T12:27:29;12.40;;;11.35;;
9372;SDS011;10838;52.350;9.790;2023-06-22T12:29:56;12.43;;;10.90;;
9372;SDS011;10838;52.350;9.790;2023-06-22T12:32:23;12.50;;;11.18;;
9372;SDS011;10838;52.350;9.790;2023-06-22T12:34:51;12.18;;;11.13;;
9372;SDS011;10838;52.350;9.790;2023-06-22T12:37:18;12.10;;;10.73;;
9372;SDS011;10838;52.350;9.790;2023-06-22T12:39:45;12.18;;;11.07;;
9372;SDS011;10838;52.350;9.790;2023-06-22T12:42:12;10.98;;;10.25;;
9372;SDS011;10838;52.350;9.790;2023-06-22T12:44:38;11.02;;;10.20;;
9372;SDS011;10838;52.350;9.790;2023-06-22T12:47:05;14.38;;;10.27;;
9372;SDS011;10838;52.350;9.790;2023-06-22T12:49:33;10.48;;;9.70;;
9372;SDS011;10838;52.350;9.790;2023-06-22T12:52:01;10.65;;;9.65;;
9372;SDS011;10838;52.350;9.790;2023-06-22T12:54:28;12.43;;;10.82;;
9372;SDS011;10838;52.350;9.790;2023-06-22T12:56:55;11.50;;;10.60;;
9372;SDS011;10838;52.350;9.790;2023-06-22T12:59:22;11.73;;;10.57;;
9372;SDS011;10838;52.350;9.790;2023-06-22T13:01:48;11.50;;;10.38;;
9372;SDS011;10838;52.350;9.790;2023-06-22T13:04:15;15.98;;;10.77;;
9372;SDS011;10838;52.350;9.790;2023-06-22T13:06:43;10.27;;;9.48;;
9372;SDS011;10838;52.350;9.790;2023-06-22T13:09:13;10.88;;;10.07;;
9372;SDS011;10838;52.350;9.790;2023-06-22T13:11:41;10.52;;;9.45;;
9372;SDS011;10838;52.350;9.790;2023-06-22T13:14:07;11.55;;;10.20;;
9372;SDS011;10838;52.350;9.790;2023-06-22T13:16:34;11.10;;;10.07;;
9372;SDS011;10838;52.350;9.790;2023-06-22T13:19:01;10.85;;;10.05;;
9372;SDS011;10838;52.350;9.790;2023-06-22T13:21:27;11.15;;;10.18;;
9372;SDS011;10838;52.350;9.790;2023-06-22T13:23:54;11.73;;;10.65;;
9372;SDS011;10838;52.350;9.790;2023-06-22T13:26:22;11.35;;;10.45;;
9372;SDS011;10838;52.350;9.790;2023-06-22T13:28:49;11.45;;;10.52;;
9372;SDS011;10838;52.350;9.790;2023-06-22T13:31:15;11.93;;;10.43;;
9372;SDS011;10838;52.350;9.790;2023-06-22T13:33:42;13.07;;;11.55;;
9372;SDS011;10838;52.350;9.790;2023-06-22T13:36:10;11.63;;;10.63;;
9372;SDS011;10838;52.350;9.790;2023-06-22T13:38:37;12.27;;;11.02;;
9372;SDS011;10838;52.350;9.790;2023-06-22T13:41:04;12.45;;;11.32;;
9372;SDS011;10838;52.350;9.790;2023-06-22T13:43:31;11.63;;;10.63;;
9372;SDS011;10838;52.350;9.790;2023-06-22T13:45:58;11.82;;;10.77;;
9372;SDS011;10838;52.350;9.790;2023-06-22T13:48:25;12.82;;;11.50;;
9372;SDS011;10838;52.350;9.790;2023-06-22T13:50:53;12.18;;;11.07;;
9372;SDS011;10838;52.350;9.790;2023-06-22T13:53:20;12.30;;;11.23;;
9372;SDS011;10838;52.350;9.790;2023-06-22T13:55:46;12.10;;;11.00;;
9372;SDS011;10838;52.350;9.790;2023-06-22T13:58:13;13.20;;;11.90;;
9372;SDS011;10838;52.350;9.790;2023-06-22T14:00:41;12.93;;;11.68;;
9372;SDS011;10838;52.350;9.790;2023-06-22T14:03:08;12.95;;;11.70;;
9372;SDS011;10838;52.350;9.790;2023-06-22T14:05:34;12.95;;;11.85;;
9372;SDS011;10838;52.350;9.790;2023-06-22T14:08:01;13.02;;;11.57;;
9372;SDS011;10838;52.350;9.790;2023-06-22T14:10:28;14.25;;;12.23;;
9372;SDS011;10838;52.350;9.790;2023-06-22T14:12:54;13.35;;;12.05;;
9372;SDS011;10838;52.350;9.790;2023-06-22T14:15:21;13.23;;;11.93;;
9372;SDS011;10838;52.350;9.790;2023-06-22T14:17:49;14.65;;;12.77;;
9372;SDS011;10838;52.350;9.790;2023-06-22T14:20:16;13.70;;;12.63;;
9372;SDS011;10838;52.350;9.790;2023-06-22T14:22:43;14.77;;;13.55;;
9372;SDS011;10838;52.350;9.790;2023-06-22T14:25:09;15.02;;;13.75;;
9372;SDS011;10838;52.350;9.790;2023-06-22T14:27:36;16.05;;;14.65;;
9372;SDS011;10838;52.350;9.790;2023-06-22T14:30:03;14.88;;;13.57;;
9372;SDS011;10838;52.350;9.790;2023-06-22T14:32:30;15.05;;;13.85;;
9372;SDS011;10838;52.350;9.790;2023-06-22T14:34:58;14.95;;;13.75;;
9372;SDS011;10838;52.350;9.790;2023-06-22T14:37:25;15.25;;;14.02;;
9372;SDS011;10838;52.350;9.790;2023-06-22T14:39:51;15.48;;;14.07;;
9372;SDS011;10838;52.350;9.790;2023-06-22T14:42:18;15.27;;;13.80;;